Caceres, Brazil
Current Conditions -  °F | °C
As of 11:00 AM on Thursday 30 Oct 2014 (Local Time) from SBCY Reporting Station
Broken Clouds Broken Clouds  
Wind Chill: 91°   Ceiling: 10000
Heat Index: 95°   Visibility: 6mi
Dew Point: 68°   Wind: 13mph
Humidity: 46%   Direction: 360°N
Pressure: 29.85"   Gusts: NA
Location:  16.05°S, 57.51°W
Report Text: SBCY 301400Z 36011KT 9999 FEW020 BKN100 33/20 Q1011
Loading
Personal Weather Stations






























Interactive Weather Map
Tropical Storm Tracking
New forecast layout! Learn more

10-Day Weather Forecast

Advertisements
Track Severe Weather on mobile